Aberdeen Proving Ground, Maryland
Current Conditions -  °F | °C
As of 11:58 AM on Thursday 29 Jan 2015 (Local Time) from KAPG Reporting Station
Overcast Overcast  
Wind Chill: 24°   Ceiling: 12000
Heat Index: 32°   Visibility: 7mi
Dew Point: 12°   Wind: 9mph
Humidity: 44%   Direction: 150°SSE
Pressure: 30.25"   Gusts: NA
Location:  39.48°N, 76.13°W
Report Text: KAPG 291658Z 15008KT 7SM BKN120 OVC200 00/M11 A3025
Loading
Personal Weather Stations






























Interactive Weather Map New forecast layout! Learn more

10-Day Weather Forecast

Advertisements
Track Severe Weather on mobile